Time;durP1;ratioP1;P1;durP2;ratioP2;P2;SDS_P1;SDS_P2;PMS_P1;PMS_P2;Temp;Humidity;BMP_temperature;BMP_pressure;BME280_temperature;BME280_humidity;BME280_pressure;Samples;Min_cycle;Max_cycle;Signal;HPM_P1;HPM_P2
2022/03/06 00:02:13;;;;;;;2.70;2.60;;;2.20;98.50;;;;;;5003035;28;20186;-79
2022/03/06 00:04:38;;;;;;;2.73;2.53;;;2.20;98.50;;;;;;5002445;28;20308;-79
2022/03/06 00:07:04;;;;;;;2.37;2.27;;;2.10;98.50;;;;;;5004827;28;20239;-79
2022/03/06 00:09:30;;;;;;;2.00;1.93;;;2.10;98.50;;;;;;5002788;28;20235;-79
2022/03/06 00:11:56;;;;;;;2.13;2.03;;;2.10;98.50;;;;;;5002636;28;20255;-79
2022/03/06 00:14:21;;;;;;;2.17;2.07;;;2.10;98.50;;;;;;5001547;28;20197;-79
2022/03/06 00:16:47;;;;;;;1.73;1.73;;;2.10;98.50;;;;;;5001320;28;20666;-79
2022/03/06 00:19:13;;;;;;;1.90;1.80;;;2.10;98.50;;;;;;5003712;28;20181;-79
2022/03/06 00:21:39;;;;;;;2.30;2.13;;;2.10;98.50;;;;;;5001045;28;20273;-79
2022/03/06 00:24:06;;;;;;;3.00;2.20;;;2.10;98.50;;;;;;4996672;28;20300;-81
2022/03/06 00:26:33;;;;;;;2.27;2.17;;;2.10;98.50;;;;;;5001217;28;20681;-80
2022/03/06 00:28:59;;;;;;;2.07;1.97;;;2.10;98.50;;;;;;4992473;28;20564;-81
2022/03/06 00:31:25;;;;;;;2.13;2.03;;;2.10;98.50;;;;;;4994480;28;20185;-81
2022/03/06 00:33:52;;;;;;;2.00;1.90;;;2.10;98.50;;;;;;4999896;28;20692;-81
2022/03/06 00:36:18;;;;;;;1.97;1.83;;;2.10;98.50;;;;;;4998874;28;20268;-80
2022/03/06 00:38:44;;;;;;;1.53;1.43;;;2.10;98.50;;;;;;4997046;28;20272;-80
2022/03/06 00:41:11;;;;;;;1.47;1.40;;;2.10;98.50;;;;;;4992664;28;20276;-80
2022/03/06 00:43:37;;;;;;;1.27;1.23;;;2.10;98.50;;;;;;4998324;28;20213;-80
2022/03/06 00:46:04;;;;;;;1.50;1.47;;;2.10;98.50;;;;;;4999111;28;20182;-79
2022/03/06 00:48:30;;;;;;;1.13;1.13;;;2.10;98.50;;;;;;4999871;28;20223;-78
2022/03/06 00:50:56;;;;;;;1.17;1.17;;;2.10;98.50;;;;;;4997063;28;20209;-80
2022/03/06 00:53:22;;;;;;;1.33;1.23;;;2.10;98.50;;;;;;4999312;28;20251;-78
2022/03/06 00:55:49;;;;;;;1.27;1.27;;;2.00;98.50;;;;;;4997612;28;20193;-80
2022/03/06 00:58:14;;;;;;;3.90;1.37;;;2.00;98.50;;;;;;4998949;28;20236;-79
2022/03/06 01:00:42;;;;;;;1.70;1.60;;;2.10;98.50;;;;;;4994962;28;20190;-79
2022/03/06 01:03:10;;;;;;;1.30;1.23;;;2.00;98.50;;;;;;4995827;28;20224;-79
2022/03/06 01:05:36;;;;;;;1.13;1.13;;;2.10;98.50;;;;;;4995105;28;20189;-79
2022/03/06 01:08:03;;;;;;;1.30;1.23;;;2.00;98.50;;;;;;5001029;28;20178;-80
2022/03/06 01:10:29;;;;;;;1.40;1.30;;;2.10;98.50;;;;;;4996280;28;20262;-78
2022/03/06 01:12:54;;;;;;;1.10;1.10;;;2.00;98.50;;;;;;4997925;28;20746;-80
2022/03/06 01:15:21;;;;;;;1.57;1.47;;;2.00;98.50;;;;;;4998395;28;20891;-79
2022/03/06 01:17:46;;;;;;;1.43;1.40;;;2.00;98.50;;;;;;4994961;28;20212;-79
2022/03/06 01:20:12;;;;;;;1.63;1.63;;;2.00;98.50;;;;;;4999508;28;20266;-80
2022/03/06 01:22:38;;;;;;;1.57;1.57;;;1.90;98.50;;;;;;4997943;28;20181;-80
2022/03/06 01:25:05;;;;;;;2.20;2.00;;;1.90;98.50;;;;;;4996132;28;20296;-79
2022/03/06 01:27:31;;;;;;;2.20;2.10;;;1.90;98.50;;;;;;4994543;28;20186;-79
2022/03/06 01:29:57;;;;;;;2.13;1.80;;;1.80;98.50;;;;;;4998033;28;20243;-80
2022/03/06 01:32:23;;;;;;;3.07;1.80;;;1.80;98.50;;;;;;4999408;28;20181;-79
2022/03/06 01:34:49;;;;;;;2.50;2.30;;;1.80;98.50;;;;;;4999941;28;21060;-79
2022/03/06 01:37:15;;;;;;;2.27;2.10;;;1.80;98.50;;;;;;4997706;28;20252;-79
2022/03/06 01:39:40;;;;;;;2.50;2.37;;;1.80;98.50;;;;;;4997282;28;20185;-79
2022/03/06 01:42:07;;;;;;;2.10;2.00;;;1.80;98.50;;;;;;4997732;28;20185;-79
2022/03/06 01:44:32;;;;;;;2.73;2.60;;;1.90;98.50;;;;;;4997719;28;20220;-80
2022/03/06 01:46:58;;;;;;;4.30;2.67;;;1.80;98.50;;;;;;5027497;28;20195;-80
2022/03/06 01:49:24;;;;;;;2.50;2.30;;;1.90;98.50;;;;;;4999743;28;20185;-80
2022/03/06 01:51:50;;;;;;;2.67;2.47;;;1.80;98.50;;;;;;4995689;28;20197;-80
2022/03/06 01:54:16;;;;;;;2.47;2.27;;;1.90;98.50;;;;;;4995888;28;20189;-82
2022/03/06 01:56:42;;;;;;;2.90;2.70;;;1.90;98.50;;;;;;4999958;28;20189;-81
2022/03/06 01:59:09;;;;;;;2.90;2.70;;;1.90;98.50;;;;;;4994804;28;20204;-81
2022/03/06 02:01:35;;;;;;;3.00;2.80;;;2.00;98.50;;;;;;4998957;28;20660;-80
2022/03/06 02:04:01;;;;;;;2.97;2.77;;;2.00;98.50;;;;;;4996948;28;20223;-80
2022/03/06 02:06:28;;;;;;;3.03;2.73;;;2.00;98.50;;;;;;4999150;28;20181;-80
2022/03/06 02:08:54;;;;;;;2.90;2.50;;;2.00;98.50;;;;;;4993157;28;20228;-79
2022/03/06 02:11:22;;;;;;;2.57;2.40;;;2.00;98.50;;;;;;4996672;28;20208;-80
2022/03/06 02:13:48;;;;;;;2.93;2.73;;;2.00;98.50;;;;;;4998564;28;20219;-80
2022/03/06 02:16:13;;;;;;;3.20;2.83;;;2.10;98.50;;;;;;4998180;28;20208;-79
2022/03/06 02:18:39;;;;;;;2.83;2.60;;;2.10;98.50;;;;;;4996751;28;20183;-81
2022/03/06 02:21:10;;;;;;;3.00;2.77;;;2.10;98.50;;;;;;4996491;28;20248;-80
2022/03/06 02:23:38;;;;;;;2.63;2.50;;;2.10;98.50;;;;;;4997660;28;20225;-81
2022/03/06 02:26:05;;;;;;;2.87;2.77;;;2.10;98.50;;;;;;4993973;28;20216;-80
2022/03/06 02:28:31;;;;;;;2.93;2.43;;;2.20;98.50;;;;;;4994487;28;20231;-81
2022/03/06 02:30:57;;;;;;;2.20;2.10;;;2.20;98.50;;;;;;4997268;28;20182;-81
2022/03/06 02:33:23;;;;;;;2.33;2.13;;;2.20;98.50;;;;;;4997400;28;20191;-81
2022/03/06 02:35:49;;;;;;;2.60;2.50;;;2.20;98.50;;;;;;4995309;28;20813;-81
2022/03/06 02:38:15;;;;;;;2.53;2.43;;;2.20;98.50;;;;;;4995551;28;20655;-81
2022/03/06 02:40:43;;;;;;;2.67;2.53;;;2.20;98.50;;;;;;4994917;28;20196;-81
2022/03/06 02:43:11;;;;;;;3.73;2.70;;;2.20;98.50;;;;;;4997785;28;20185;-81
2022/03/06 02:45:39;;;;;;;2.80;2.60;;;2.20;98.50;;;;;;4997106;28;20189;-80
2022/03/06 02:48:05;;;;;;;2.10;2.00;;;2.20;98.50;;;;;;5001767;28;20182;-80
2022/03/06 02:50:34;;;;;;;2.23;2.03;;;2.20;98.50;;;;;;4998992;28;20177;-80
2022/03/06 02:53:01;;;;;;;1.83;1.77;;;2.20;98.50;;;;;;5000961;28;20188;-80
2022/03/06 02:55:27;;;;;;;2.07;1.97;;;2.10;98.50;;;;;;4999866;28;20653;-80
2022/03/06 02:57:54;;;;;;;1.87;1.80;;;2.20;98.50;;;;;;4998924;28;20232;-81
2022/03/06 03:00:22;;;;;;;3.20;2.03;;;2.20;98.50;;;;;;5001013;28;20208;-80
2022/03/06 03:02:49;;;;;;;2.17;2.00;;;2.20;98.50;;;;;;5000228;28;20560;-80
2022/03/06 03:05:15;;;;;;;2.00;1.90;;;2.20;98.50;;;;;;4997793;28;20274;-79
2022/03/06 03:07:42;;;;;;;1.70;1.67;;;2.20;98.50;;;;;;5000434;28;20239;-80
2022/03/06 03:10:10;;;;;;;1.80;1.70;;;2.20;98.50;;;;;;4999091;28;20186;-79
2022/03/06 03:12:36;;;;;;;1.90;1.80;;;2.20;98.50;;;;;;4997045;28;20192;-79
2022/03/06 03:15:03;;;;;;;1.83;1.73;;;2.20;98.50;;;;;;5002045;28;20197;-81
2022/03/06 03:17:29;;;;;;;2.30;2.00;;;2.20;98.50;;;;;;5001048;28;20216;-79
2022/03/06 03:19:55;;;;;;;1.47;1.37;;;2.20;98.50;;;;;;4997034;28;20217;-79
2022/03/06 03:22:21;;;;;;;1.60;1.60;;;2.20;98.50;;;;;;5003863;28;20191;-80
2022/03/06 03:24:46;;;;;;;1.17;1.17;;;2.20;98.50;;;;;;4998928;28;20212;-80
2022/03/06 03:27:12;;;;;;;1.20;1.20;;;2.20;98.50;;;;;;5002771;28;20217;-81
2022/03/06 03:29:38;;;;;;;1.37;1.27;;;2.20;98.50;;;;;;4994008;28;20646;-79
2022/03/06 03:32:04;;;;;;;1.20;1.20;;;2.10;98.50;;;;;;4998988;28;20181;-78
2022/03/06 03:34:30;;;;;;;1.37;1.37;;;2.10;98.50;;;;;;4998864;28;20268;-81
2022/03/06 03:36:56;;;;;;;1.00;1.00;;;2.10;98.50;;;;;;4997519;28;20260;-79
2022/03/06 03:39:21;;;;;;;0.90;0.90;;;2.10;98.50;;;;;;4996217;28;20193;-80
2022/03/06 03:41:47;;;;;;;1.10;1.03;;;2.00;98.50;;;;;;5000467;28;20188;-80
2022/03/06 03:44:13;;;;;;;2.20;1.30;;;2.00;98.50;;;;;;5002352;28;20308;-81
2022/03/06 03:46:38;;;;;;;1.90;1.80;;;1.90;98.50;;;;;;5004729;28;20189;-80
2022/03/06 03:49:04;;;;;;;1.67;1.63;;;1.90;98.50;;;;;;4999153;28;20247;-80
2022/03/06 03:51:33;;;;;;;1.03;1.03;;;1.90;98.50;;;;;;5001888;28;20185;-80
2022/03/06 03:53:59;;;;;;;0.90;0.90;;;1.80;98.50;;;;;;4999625;28;20185;-80
2022/03/06 03:56:25;;;;;;;1.33;1.33;;;1.90;98.50;;;;;;4996065;28;20189;-80
2022/03/06 03:58:50;;;;;;;0.67;0.67;;;1.90;98.50;;;;;;4997092;28;20192;-80
2022/03/06 04:01:17;;;;;;;1.00;1.00;;;1.90;98.50;;;;;;4995603;28;20314;-80
2022/03/06 04:03:43;;;;;;;1.07;1.00;;;1.90;98.50;;;;;;4995229;28;20245;-79
2022/03/06 04:06:09;;;;;;;0.80;0.80;;;1.80;98.50;;;;;;4999398;28;20176;-80
2022/03/06 04:08:35;;;;;;;1.00;1.00;;;1.80;98.50;;;;;;4999351;28;20572;-81
2022/03/06 04:11:00;;;;;;;0.60;0.60;;;1.80;98.50;;;;;;5001122;28;20578;-81
2022/03/06 04:13:27;;;;;;;0.73;0.73;;;1.70;98.50;;;;;;4997950;28;20192;-79
2022/03/06 04:15:53;;;;;;;1.00;1.00;;;1.70;98.50;;;;;;5000050;28;20185;-80
2022/03/06 04:18:19;;;;;;;0.83;0.83;;;1.70;98.50;;;;;;4997113;28;20206;-80
2022/03/06 04:20:45;;;;;;;1.07;1.07;;;1.60;98.50;;;;;;4998476;28;20282;-79
2022/03/06 04:23:11;;;;;;;0.90;0.90;;;1.60;98.50;;;;;;4999325;28;20185;-80
2022/03/06 04:25:36;;;;;;;1.13;1.13;;;1.70;98.50;;;;;;4997443;28;20616;-80
2022/03/06 04:28:02;;;;;;;0.70;0.70;;;1.70;98.50;;;;;;4995287;28;20196;-79
2022/03/06 04:30:28;;;;;;;0.70;0.70;;;1.60;98.50;;;;;;4998720;28;20184;-80
2022/03/06 04:32:54;;;;;;;0.60;0.60;;;1.60;98.50;;;;;;4997406;28;20182;-81
2022/03/06 04:35:19;;;;;;;0.50;0.50;;;1.60;98.50;;;;;;4993912;28;20727;-80
2022/03/06 04:37:45;;;;;;;0.70;0.70;;;1.60;98.50;;;;;;4996421;28;20259;-80
2022/03/06 04:40:11;;;;;;;2.20;0.80;;;1.60;98.50;;;;;;4995051;28;20762;-80
2022/03/06 04:42:37;;;;;;;0.60;0.60;;;1.50;98.50;;;;;;4996157;28;20272;-80
2022/03/06 04:45:03;;;;;;;0.60;0.60;;;1.50;98.50;;;;;;4995531;28;20673;-80
2022/03/06 04:47:29;;;;;;;0.70;0.70;;;1.50;98.50;;;;;;4997385;28;20186;-80
2022/03/06 04:49:55;;;;;;;0.50;0.50;;;1.50;98.50;;;;;;4994513;28;20189;-80
2022/03/06 04:52:21;;;;;;;0.50;0.50;;;1.50;98.50;;;;;;4998728;28;20640;-80
2022/03/06 04:54:47;;;;;;;0.50;0.50;;;1.50;98.50;;;;;;4992598;28;20184;-80
2022/03/06 04:57:14;;;;;;;0.70;0.70;;;1.50;98.50;;;;;;4996352;28;20228;-80
2022/03/06 04:59:40;;;;;;;0.83;0.83;;;1.50;98.50;;;;;;4996503;28;20173;-80
2022/03/06 05:02:05;;;;;;;0.60;0.60;;;1.50;98.50;;;;;;4997069;28;20243;-80
2022/03/06 05:04:31;;;;;;;0.60;0.60;;;1.50;98.50;;;;;;4998500;28;20217;-79
2022/03/06 05:06:57;;;;;;;0.43;0.43;;;1.50;98.50;;;;;;4996359;28;20196;-80
2022/03/06 05:09:23;;;;;;;0.47;0.47;;;1.50;98.50;;;;;;4998433;28;20264;-80
2022/03/06 05:11:48;;;;;;;0.40;0.40;;;1.40;98.50;;;;;;4997872;28;20198;-80
2022/03/06 05:14:14;;;;;;;0.40;0.40;;;1.40;98.50;;;;;;4997031;28;20562;-80
2022/03/06 05:16:40;;;;;;;0.60;0.60;;;1.40;98.50;;;;;;4994055;28;20655;-80
2022/03/06 05:19:05;;;;;;;0.60;0.60;;;1.40;98.50;;;;;;4993026;28;20738;-80
2022/03/06 05:21:31;;;;;;;0.50;0.50;;;1.40;98.50;;;;;;4998645;28;20244;-79
2022/03/06 05:23:57;;;;;;;0.43;0.43;;;1.40;98.50;;;;;;4991511;28;20209;-80
2022/03/06 05:26:24;;;;;;;0.43;0.43;;;1.50;98.50;;;;;;5002731;28;20189;-80
2022/03/06 05:28:50;;;;;;;0.70;0.70;;;1.40;98.50;;;;;;4995201;28;20256;-80
2022/03/06 05:31:16;;;;;;;0.60;0.60;;;1.40;98.50;;;;;;4992815;28;20662;-79
2022/03/06 05:33:41;;;;;;;0.30;0.30;;;1.50;98.50;;;;;;4992521;28;20750;-79
2022/03/06 05:36:07;;;;;;;0.83;0.83;;;1.40;98.50;;;;;;4995745;28;20259;-79
2022/03/06 05:38:33;;;;;;;1.43;0.40;;;1.40;98.50;;;;;;4995412;28;20205;-80
2022/03/06 05:40:59;;;;;;;0.40;0.40;;;1.40;98.50;;;;;;4996723;28;20268;-80
2022/03/06 05:43:24;;;;;;;0.50;0.50;;;1.40;98.50;;;;;;4998001;28;20181;-80
2022/03/06 05:45:52;;;;;;;0.60;0.60;;;1.40;98.50;;;;;;4993430;28;20268;-79
2022/03/06 05:48:21;;;;;;;0.50;0.50;;;1.40;98.50;;;;;;4995495;28;20300;-80
2022/03/06 05:50:48;;;;;;;0.63;0.63;;;1.50;98.50;;;;;;4996058;28;20185;-79
2022/03/06 05:53:14;;;;;;;0.50;0.50;;;1.50;98.50;;;;;;4994545;28;20199;-79
2022/03/06 05:55:40;;;;;;;0.33;0.33;;;1.50;98.50;;;;;;4993814;28;20196;-79
2022/03/06 05:58:06;;;;;;;0.53;0.53;;;1.50;98.50;;;;;;4994817;28;20186;-80
2022/03/06 06:00:32;;;;;;;0.40;0.40;;;1.50;98.50;;;;;;4991986;28;20189;-80
2022/03/06 06:02:58;;;;;;;0.40;0.40;;;1.50;98.50;;;;;;4993885;28;20309;-80
2022/03/06 06:05:24;;;;;;;0.60;0.60;;;1.50;98.50;;;;;;4994507;28;20212;-80
2022/03/06 06:07:51;;;;;;;0.40;0.40;;;1.50;98.50;;;;;;4996459;28;20235;-79
2022/03/06 06:10:17;;;;;;;0.50;0.50;;;1.50;98.50;;;;;;4993133;28;20186;-79
2022/03/06 06:12:43;;;;;;;0.40;0.40;;;1.50;98.50;;;;;;4995399;28;20560;-79
2022/03/06 06:15:09;;;;;;;0.50;0.50;;;1.60;98.50;;;;;;4991228;28;20184;-79
2022/03/06 06:17:36;;;;;;;0.50;0.50;;;1.60;98.50;;;;;;4995921;28;20172;-82
2022/03/06 06:20:04;;;;;;;0.50;0.50;;;1.50;98.50;;;;;;4995124;28;20194;-79
2022/03/06 06:22:31;;;;;;;0.60;0.60;;;1.50;98.50;;;;;;5001629;28;20295;-79
2022/03/06 06:24:57;;;;;;;0.40;0.40;;;1.50;98.50;;;;;;4999669;28;20297;-79
2022/03/06 06:27:23;;;;;;;0.70;0.70;;;1.60;98.50;;;;;;5006033;28;20192;-79
2022/03/06 06:29:48;;;;;;;0.43;0.43;;;1.60;98.50;;;;;;5002405;28;20272;-80
2022/03/06 06:32:14;;;;;;;0.40;0.40;;;1.60;98.50;;;;;;5000958;28;20208;-80
2022/03/06 06:34:40;;;;;;;0.67;0.67;;;1.60;98.50;;;;;;4997911;28;20186;-79
2022/03/06 06:37:06;;;;;;;0.53;0.53;;;1.60;98.50;;;;;;5003385;28;20184;-79
2022/03/06 06:39:31;;;;;;;0.50;0.50;;;1.60;98.50;;;;;;5000374;28;20188;-78
2022/03/06 06:41:59;;;;;;;0.50;0.50;;;1.50;98.50;;;;;;4999366;28;20180;-79
2022/03/06 06:44:25;;;;;;;0.43;0.43;;;1.50;98.50;;;;;;5000168;28;20216;-79
2022/03/06 06:46:51;;;;;;;0.50;0.50;;;1.50;98.50;;;;;;5002776;28;20181;-79
2022/03/06 06:49:16;;;;;;;0.47;0.47;;;1.50;98.50;;;;;;4997947;28;20190;-76
2022/03/06 06:51:42;;;;;;;0.60;0.60;;;1.60;98.50;;;;;;4998807;28;21138;-76
2022/03/06 06:54:08;;;;;;;0.60;0.60;;;1.60;98.50;;;;;;4998877;28;20189;-77
2022/03/06 06:56:34;;;;;;;0.50;0.50;;;1.60;98.50;;;;;;4998742;28;20181;-78
2022/03/06 06:59:00;;;;;;;0.40;0.40;;;1.60;98.50;;;;;;4999529;28;20608;-79
2022/03/06 07:01:26;;;;;;;0.70;0.70;;;1.60;98.50;;;;;;5000831;28;20197;-79
2022/03/06 07:03:53;;;;;;;0.30;0.30;;;1.60;98.50;;;;;;5001751;28;20217;-79
2022/03/06 07:06:19;;;;;;;0.30;0.30;;;1.50;98.50;;;;;;5000440;28;20296;-77
2022/03/06 07:08:45;;;;;;;0.43;0.43;;;1.50;98.50;;;;;;4999722;28;20284;-77
2022/03/06 07:11:10;;;;;;;0.40;0.40;;;1.50;98.50;;;;;;4997652;28;20192;-79
2022/03/06 07:13:36;;;;;;;0.50;0.50;;;1.50;98.50;;;;;;4998550;28;20243;-78
2022/03/06 07:16:02;;;;;;;0.40;0.40;;;1.40;98.50;;;;;;5000024;28;20260;-78
2022/03/06 07:18:28;;;;;;;0.40;0.40;;;1.40;98.50;;;;;;4999107;28;20184;-79
2022/03/06 07:20:54;;;;;;;0.50;0.50;;;1.40;98.50;;;;;;4999973;28;20190;-76
2022/03/06 07:23:19;;;;;;;0.40;0.40;;;1.40;98.50;;;;;;5002614;28;20247;-76
2022/03/06 07:25:46;;;;;;;0.50;0.50;;;1.40;98.50;;;;;;5000887;28;20247;-74
2022/03/06 07:28:12;;;;;;;0.30;0.30;;;1.40;98.50;;;;;;4996293;28;20189;-75
2022/03/06 07:30:38;;;;;;;0.40;0.40;;;1.30;98.50;;;;;;5001379;28;20251;-80
2022/03/06 07:33:04;;;;;;;0.50;0.50;;;1.40;98.50;;;;;;4999696;28;20185;-75
2022/03/06 07:35:32;;;;;;;0.40;0.40;;;1.40;98.50;;;;;;4997925;28;20655;-76
2022/03/06 07:37:58;;;;;;;0.40;0.40;;;1.50;98.50;;;;;;5001182;28;20631;-76
2022/03/06 07:40:24;;;;;;;0.37;0.37;;;1.50;98.50;;;;;;5001529;28;20193;-75
2022/03/06 07:42:50;;;;;;;1.83;0.57;;;1.60;98.50;;;;;;4998902;28;20268;-75
2022/03/06 07:45:17;;;;;;;0.53;0.53;;;1.60;98.50;;;;;;5000009;28;20216;-75
2022/03/06 07:47:43;;;;;;;0.50;0.50;;;1.60;98.50;;;;;;5000489;28;20181;-75
2022/03/06 07:50:11;;;;;;;0.40;0.40;;;1.60;98.50;;;;;;4999290;28;20200;-76
2022/03/06 07:52:38;;;;;;;0.50;0.50;;;1.60;98.50;;;;;;5000315;28;20193;-75
2022/03/06 07:55:05;;;;;;;0.60;0.60;;;1.60;98.50;;;;;;4999835;28;20189;-76
2022/03/06 07:57:31;;;;;;;0.57;0.40;;;1.60;98.50;;;;;;5001152;28;20769;-75
2022/03/06 07:59:56;;;;;;;0.30;0.30;;;1.60;98.50;;;;;;4999394;28;20177;-74
2022/03/06 08:02:22;;;;;;;0.50;0.50;;;1.70;98.50;;;;;;5005516;28;20193;-75
2022/03/06 08:04:47;;;;;;;0.40;0.40;;;1.70;98.50;;;;;;5001143;28;20248;-75
2022/03/06 08:07:13;;;;;;;0.30;0.30;;;1.70;98.50;;;;;;4997402;28;21025;-75
2022/03/06 08:09:39;;;;;;;0.60;0.60;;;1.70;98.50;;;;;;5001532;28;20177;-75
2022/03/06 08:12:05;;;;;;;0.40;0.40;;;1.80;98.50;;;;;;4996408;28;20186;-75
2022/03/06 08:14:31;;;;;;;0.50;0.43;;;1.70;98.50;;;;;;4996005;28;20200;-75
2022/03/06 08:16:56;;;;;;;0.47;0.47;;;1.80;98.50;;;;;;4996183;28;20182;-75
2022/03/06 08:19:23;;;;;;;0.60;0.50;;;1.80;98.50;;;;;;4999314;28;20625;-75
2022/03/06 08:21:49;;;;;;;0.50;0.50;;;1.80;98.50;;;;;;4996347;28;20577;-75
2022/03/06 08:24:16;;;;;;;0.47;0.47;;;1.90;98.50;;;;;;4999545;28;20278;-75
2022/03/06 08:26:42;;;;;;;0.97;0.40;;;1.90;98.50;;;;;;4996051;28;20275;-76
2022/03/06 08:29:07;;;;;;;0.30;0.30;;;2.00;98.50;;;;;;4994687;28;20181;-76
2022/03/06 08:31:33;;;;;;;0.53;0.53;;;2.00;98.50;;;;;;5000062;28;20668;-77
2022/03/06 08:33:59;;;;;;;0.30;0.30;;;2.00;98.50;;;;;;4993001;28;20236;-77
2022/03/06 08:36:24;;;;;;;0.47;0.47;;;2.00;98.50;;;;;;4997187;28;20181;-76
2022/03/06 08:38:50;;;;;;;1.47;0.47;;;2.00;98.50;;;;;;4994784;28;20778;-77
2022/03/06 08:41:16;;;;;;;0.47;0.47;;;2.00;98.50;;;;;;5000029;28;20197;-77
2022/03/06 08:43:42;;;;;;;0.50;0.50;;;2.10;98.50;;;;;;4996302;28;20288;-75
2022/03/06 08:46:07;;;;;;;0.53;0.50;;;2.10;98.50;;;;;;4996319;28;20196;-75
2022/03/06 08:48:36;;;;;;;0.60;0.60;;;2.10;98.50;;;;;;4992231;28;20189;-75
2022/03/06 08:51:05;;;;;;;0.60;0.60;;;2.10;98.50;;;;;;4995147;28;20185;-76
2022/03/06 08:53:32;;;;;;;0.50;0.50;;;2.20;98.50;;;;;;4995774;28;20177;-75
2022/03/06 08:55:59;;;;;;;0.60;0.60;;;2.20;98.50;;;;;;4996537;28;20986;-75
2022/03/06 08:58:25;;;;;;;0.83;0.83;;;2.20;98.50;;;;;;4994167;28;20208;-75
2022/03/06 09:00:51;;;;;;;0.80;0.60;;;2.20;98.50;;;;;;4990565;28;20248;-75
2022/03/06 09:03:17;;;;;;;0.60;0.60;;;2.30;98.50;;;;;;4992975;28;20878;-75
2022/03/06 09:05:42;;;;;;;0.53;0.53;;;2.30;98.50;;;;;;4993397;28;20216;-75
2022/03/06 09:08:09;;;;;;;0.57;0.57;;;2.30;98.50;;;;;;4994389;28;20185;-75
2022/03/06 09:10:36;;;;;;;0.60;0.60;;;2.40;98.50;;;;;;4998886;28;20185;-75
2022/03/06 09:13:02;;;;;;;0.93;0.70;;;2.50;98.50;;;;;;4992869;28;20566;-76
2022/03/06 09:15:30;;;;;;;0.93;0.67;;;2.70;98.50;;;;;;4996694;28;20186;-76
2022/03/06 09:17:56;;;;;;;1.00;0.90;;;2.80;98.50;;;;;;4996370;28;20318;-75
2022/03/06 09:20:23;;;;;;;0.80;0.80;;;2.90;98.50;;;;;;4996653;28;20192;-75
2022/03/06 09:22:49;;;;;;;1.07;0.97;;;2.90;98.50;;;;;;4992929;28;20190;-75
2022/03/06 09:25:15;;;;;;;0.50;0.50;;;3.00;98.50;;;;;;4996731;28;20223;-75
2022/03/06 09:27:41;;;;;;;1.03;0.50;;;3.00;97.90;;;;;;4999825;28;20682;-75
2022/03/06 09:30:08;;;;;;;0.70;0.70;;;2.90;97.70;;;;;;4994453;28;20189;-75
2022/03/06 09:32:37;;;;;;;0.83;0.83;;;3.00;98.00;;;;;;4992408;28;20180;-74
2022/03/06 09:35:03;;;;;;;0.50;0.50;;;3.00;97.40;;;;;;4997182;28;20193;-75
2022/03/06 09:37:29;;;;;;;0.77;0.77;;;2.90;97.20;;;;;;4996389;28;20276;-74
2022/03/06 09:39:54;;;;;;;1.03;1.03;;;2.90;97.40;;;;;;4994194;28;20722;-73
2022/03/06 09:42:22;;;;;;;1.07;0.80;;;2.80;97.70;;;;;;4995606;28;20181;-75
2022/03/06 09:44:48;;;;;;;0.60;0.60;;;2.80;97.60;;;;;;4991074;28;20221;-76
2022/03/06 09:47:15;;;;;;;0.67;0.67;;;2.70;97.70;;;;;;4993236;28;20188;-76
2022/03/06 09:49:45;;;;;;;1.30;0.80;;;2.70;97.70;;;;;;4989799;28;20209;-75
2022/03/06 09:52:12;;;;;;;0.57;0.57;;;2.60;97.90;;;;;;4995882;28;20177;-76
2022/03/06 09:54:37;;;;;;;1.67;0.90;;;2.70;98.10;;;;;;4992700;28;20193;-75
2022/03/06 09:57:05;;;;;;;0.70;0.70;;;2.70;98.10;;;;;;4992800;28;20185;-75
2022/03/06 09:59:31;;;;;;;0.70;0.70;;;2.70;98.00;;;;;;4990562;28;20177;-75
2022/03/06 10:02:07;;;;;;;0.83;0.80;;;2.70;98.20;;;;;;4995248;28;20180;-75
2022/03/06 10:04:34;;;;;;;2.60;0.70;;;2.60;97.50;;;;;;4996021;28;20217;-75
2022/03/06 10:07:17;;;;;;;0.50;0.50;;;2.50;97.30;;;;;;5069051;28;20602;-75
2022/03/06 10:09:47;;;;;;;0.50;0.50;;;2.50;97.70;;;;;;5071824;28;20919;-75
2022/03/06 10:12:30;;;;;;;0.60;0.60;;;2.40;97.40;;;;;;5069930;28;20183;-75
2022/03/06 10:15:02;;;;;;;0.40;0.40;;;2.40;97.70;;;;;;5059875;28;20186;-75
2022/03/06 10:17:30;;;;;;;0.50;0.50;;;2.20;97.00;;;;;;5062644;28;20210;-74
2022/03/06 10:20:01;;;;;;;5.50;0.60;;;2.10;97.60;;;;;;5064910;28;20207;-74
2022/03/06 10:22:28;;;;;;;0.60;0.60;;;2.10;98.30;;;;;;5062720;28;20197;-75
2022/03/06 10:25:06;;;;;;;0.60;0.60;;;2.00;97.90;;;;;;5063885;28;20237;-77
2022/03/06 10:27:45;;;;;;;0.70;0.70;;;2.00;98.00;;;;;;5070470;28;20578;-77
2022/03/06 10:30:35;;;;;;;0.77;0.77;;;1.90;97.60;;;;;;5067802;28;20205;-77
2022/03/06 10:33:02;;;;;;;0.67;0.67;;;1.90;97.30;;;;;;5037764;28;21130;-77
2022/03/06 10:35:39;;;;;;;0.63;0.63;;;1.90;97.50;;;;;;5034309;28;20239;-78
2022/03/06 10:38:27;;;;;;;1.10;1.10;;;1.90;97.10;;;;;;5037211;28;20204;-77
2022/03/06 10:40:54;;;;;;;1.23;1.23;;;1.90;97.20;;;;;;5036352;28;20179;-77
2022/03/06 10:43:25;;;;;;;1.93;0.80;;;2.00;97.40;;;;;;5036658;28;20188;-78
2022/03/06 10:46:17;;;;;;;0.90;0.90;;;2.00;96.90;;;;;;5036888;28;20207;-77
2022/03/06 10:49:08;;;;;;;1.80;1.07;;;2.00;96.30;;;;;;5036391;28;20188;-77
2022/03/06 10:51:38;;;;;;;1.03;1.03;;;2.00;96.60;;;;;;5036642;28;20196;-76
2022/03/06 10:54:04;;;;;;;1.90;1.03;;;2.10;96.70;;;;;;5035938;28;20237;-77
2022/03/06 10:56:30;;;;;;;1.07;1.00;;;2.20;96.90;;;;;;5036092;28;20192;-77
2022/03/06 10:58:57;;;;;;;1.27;1.20;;;2.20;97.00;;;;;;5034970;28;20180;-77
2022/03/06 11:01:23;;;;;;;0.70;0.70;;;2.30;96.50;;;;;;5034754;28;20195;-77
2022/03/06 11:03:50;;;;;;;0.97;0.97;;;2.20;96.10;;;;;;5035282;28;20203;-77
2022/03/06 11:06:19;;;;;;;0.63;0.63;;;2.20;96.10;;;;;;5033604;28;20227;-78
2022/03/06 11:08:46;;;;;;;0.50;0.50;;;2.10;96.00;;;;;;5029492;28;20184;-77
2022/03/06 11:11:12;;;;;;;0.97;0.50;;;1.90;95.90;;;;;;5059925;28;20263;-77
2022/03/06 11:13:39;;;;;;;0.37;0.37;;;1.80;96.60;;;;;;5065308;28;20790;-77
2022/03/06 11:16:05;;;;;;;0.60;0.60;;;1.80;96.50;;;;;;5065002;28;20186;-77
2022/03/06 11:18:32;;;;;;;0.53;0.53;;;1.80;97.30;;;;;;5050348;28;20416;-76
2022/03/06 11:21:00;;;;;;;0.60;0.60;;;1.80;97.60;;;;;;5055259;28;20183;-77
2022/03/06 11:23:36;;;;;;;0.63;0.63;;;1.80;97.80;;;;;;5050037;28;20184;-78
2022/03/06 11:26:14;;;;;;;0.50;0.50;;;1.90;98.40;;;;;;5050370;28;20195;-79
2022/03/06 11:28:45;;;;;;;0.60;0.60;;;1.90;98.00;;;;;;5054025;28;20190;-78
2022/03/06 11:31:11;;;;;;;0.60;0.50;;;1.90;98.00;;;;;;5055582;28;20188;-78
2022/03/06 11:34:03;;;;;;;0.60;0.60;;;1.90;97.60;;;;;;5058033;28;20570;-78
2022/03/06 11:36:30;;;;;;;0.87;0.43;;;1.90;97.40;;;;;;5052099;28;20228;-78
2022/03/06 11:38:56;;;;;;;1.63;0.53;;;1.80;97.00;;;;;;5058430;28;20210;-79
2022/03/06 11:41:25;;;;;;;0.50;0.50;;;1.80;97.00;;;;;;5058761;28;20766;-75
2022/03/06 11:43:53;;;;;;;0.70;0.70;;;1.80;97.00;;;;;;5055308;28;20180;-74
2022/03/06 11:46:20;;;;;;;1.67;0.70;;;1.80;96.60;;;;;;5052909;28;20875;-78
2022/03/06 11:48:48;;;;;;;1.20;1.03;;;1.70;96.00;;;;;;5051738;28;20187;-77
2022/03/06 11:51:21;;;;;;;0.60;0.60;;;1.60;95.30;;;;;;5052765;28;20178;-78
2022/03/06 11:54:00;;;;;;;0.70;0.70;;;1.60;96.00;;;;;;5051659;28;20193;-78
2022/03/06 11:56:35;;;;;;;1.47;0.80;;;1.50;96.50;;;;;;5050777;28;20240;-78
2022/03/06 11:59:09;;;;;;;0.77;0.70;;;1.50;97.20;;;;;;5050528;28;20187;-81
2022/03/06 12:01:36;;;;;;;0.63;0.60;;;1.40;97.10;;;;;;5045524;28;20187;-79
2022/03/06 12:04:14;;;;;;;0.70;0.70;;;1.40;97.30;;;;;;5051022;28;20546;-76
2022/03/06 12:06:42;;;;;;;0.97;0.97;;;1.40;97.80;;;;;;5054371;28;20211;-79
2022/03/06 12:09:19;;;;;;;0.70;0.70;;;1.40;98.10;;;;;;5049630;28;20180;-79
2022/03/06 12:11:48;;;;;;;0.70;0.70;;;1.40;98.50;;;;;;5057843;28;20179;-80
2022/03/06 12:14:24;;;;;;;0.77;0.77;;;1.30;98.50;;;;;;5042583;28;20194;-76
2022/03/06 12:17:06;;;;;;;0.77;0.77;;;1.40;98.50;;;;;;5043341;28;20253;-75
2022/03/06 12:19:42;;;;;;;0.97;0.97;;;1.40;98.50;;;;;;5050580;28;20643;-75
2022/03/06 12:22:21;;;;;;;2.10;0.80;;;1.30;98.50;;;;;;5053388;28;20684;-75
2022/03/06 12:24:49;;;;;;;0.83;0.83;;;1.30;98.50;;;;;;5045802;28;20176;-75
2022/03/06 12:27:16;;;;;;;0.80;0.80;;;1.10;98.50;;;;;;5045805;28;20211;-75
2022/03/06 12:29:48;;;;;;;0.90;0.80;;;1.00;98.50;;;;;;5041616;28;20187;-76
2022/03/06 12:32:29;;;;;;;0.80;0.80;;;1.00;98.50;;;;;;5043791;28;20207;-76
2022/03/06 12:34:57;;;;;;;1.10;1.00;;;1.10;98.50;;;;;;5047893;28;20210;-76
2022/03/06 12:37:24;;;;;;;0.90;0.90;;;1.20;98.50;;;;;;5048489;28;20195;-76
2022/03/06 12:39:49;;;;;;;0.90;0.90;;;1.10;98.50;;;;;;5044034;28;20259;-76
2022/03/06 12:42:25;;;;;;;0.80;0.80;;;1.10;98.50;;;;;;5048517;28;20190;-77
2022/03/06 12:45:00;;;;;;;0.90;0.57;;;1.20;98.50;;;;;;5045650;28;20179;-76
2022/03/06 12:47:29;;;;;;;1.03;0.63;;;1.20;98.50;;;;;;5045252;28;20555;-74
2022/03/06 12:49:56;;;;;;;0.90;0.90;;;1.30;98.50;;;;;;5051310;28;20207;-76
2022/03/06 12:52:25;;;;;;;0.70;0.70;;;1.40;98.50;;;;;;5046500;28;20242;-75
2022/03/06 12:54:52;;;;;;;1.03;0.73;;;1.50;98.50;;;;;;5049732;28;20182;-75
2022/03/06 12:57:19;;;;;;;1.27;1.00;;;1.70;98.50;;;;;;5045874;28;20210;-75
2022/03/06 12:59:48;;;;;;;1.00;1.00;;;1.70;98.50;;;;;;5047860;28;20183;-75